Historyczne dane pomiarowe

Dodano dane terminowe – wersja testowa.

Dane z okresu 1951-2019

Wersja bazy: 1.34 [2019-03-16, lista zmian], aktualizacja planowana na 2019-04-15

Dane meteo z obszaru Polski uzyskane na podstawie danych udostępnionych przez Instytut Meteorologii i Gospodarki Wodnej – Państwowy Instytut Badawczy.

 

Wybierz Datę:    

       

TemperaturaWilgotnośćWiatrCiśnienieOpadyŚniegCzas trwania zjawisk
 Stacja t tx tn tng RH VA  wxwx mslp ppp RRR   cm mm wxwxwxwxwxwxwx
1987-08-14 14.8 18.0 13.1- 77.8- 3.3 2.3---- 13.6------------
1987-08-13 12.9 17.3 10.0- 83.3- 5.3 7.0---- 0.0------------
1987-08-12 11.8 15.3 9.1- 89.3- 5.3 9.0---- 4.8------------
1987-08-11 11.5 13.8 9.5- 89.3- 6.0 2.3---- 1.2------------
1987-08-10 13.0 15.0 12.5- 94.8- 8.0 2.3---- 9.8------------
1987-08-09 14.2 18.8 9.8- 82.3- 4.3 2.0---- 19.8------------
1987-08-08 12.7 19.0 5.5- 76.0- 1.3 3.0---- 0.0------------
1987-08-07 12.3 16.0 9.5- 91.8- 2.0 3.0---- 1.2------------
1987-08-06 11.7 13.6 10.4- 89.8- 7.0 2.3---- 0.0------------
1987-08-05 11.3 14.0 9.0- 86.3- 5.7 3.7---- 0.0------------
1987-08-04 11.9 15.0 7.8- 86.5- 5.3 3.3---- 3.6------------
1987-08-03 11.4 14.0 9.5- 93.3- 6.7 3.3---- 9.8------------
1987-08-02 13.0 17.0 9.2- 84.5- 4.0 4.0---- 0.0------------
1987-08-01 14.2 16.4 13.0- 97.8- 7.3 7.0---- 2.6------------
1987-07-31 14.5 16.5 12.8- 85.8- 6.0 3.0---- 0.0------------
1987-07-30 13.5 17.0 8.0- 82.5- 6.3 4.0---- 5.6------------
1987-07-29 13.5 15.8 12.0- 83.0- 5.0 6.0---- 0.0------------
1987-07-28 13.8 17.0 11.2- 89.3- 5.3 3.0---- 5.4------------
1987-07-27 13.9 17.0 11.5- 81.3- 7.0 2.7---- 0.7------------
1987-07-26 15.1 18.8 8.8- 76.5- 2.0 5.0---- 0.0------------
1987-07-25 19.7 23.3 18.1- 86.0- 3.3 4.0---- 0.0------------
1987-07-24 21.0 25.5 18.3- 85.5- 2.7 2.3---- 4.8------------
1987-07-23 21.8 26.5 17.0- 89.3- 4.3 2.0---- 2.4------------
1987-07-22 20.3 26.8 15.7- 84.0- 3.7 1.3---- 0.0------------
1987-07-21 20.0 25.3 15.5- 82.5- 3.3 1.7---- 0.0------------
1987-07-20 17.3 18.9 14.2- 89.0- 8.0 1.7---- 2.6------------
1987-07-19 18.3 22.0 15.0- 80.8- 6.0 3.3---- 20.1------------
1987-07-18 19.5 24.0 15.5- 74.3- 2.0 3.0---- 0.0------------
1987-07-17 18.7 23.1 13.6- 67.3- 0.3 3.0---- 0.0------------
1987-07-16 17.3 20.5 13.3- 67.5- 2.3 2.3---- 0.0------------
1987-07-15 15.5 22.0 7.0- 68.3- 1.0 0.7---- 0.0------------
1987-07-14 14.7 18.2 12.0- 74.0- 1.7 1.7---- 0.0------------
1987-07-13 13.3 17.0 11.7- 88.3- 7.0 3.0---- 2.4------------
1987-07-12 13.8 18.0 11.6- 90.5- 6.3 2.7---- 4.1------------
1987-07-11 11.7 15.0 9.8- 89.3- 7.0 2.7---- 4.2------------
1987-07-10 13.1 15.5 10.0- 75.5- 5.7 4.0---- 1.3------------
1987-07-09 15.0 21.0 11.8- 87.0- 5.7 5.0---- 2.4------------
1987-07-08 20.2 27.2 12.2- 71.3- 3.0 0.7---- 7.2------------
1987-07-07 19.5 26.0 10.0- 65.8- 0.7 1.0---- 0.0------------
1987-07-06 15.9 22.5 6.2- 72.5- 1.0 2.0---- 0.0------------
1987-07-05 14.4 19.3 9.6- 69.5- 2.3 1.7---- 0.0------------
1987-07-04 13.9 19.0 10.2- 77.8- 4.0 1.3---- 0.0------------
1987-07-03 14.1 19.2 6.5- 71.5- 1.7 2.0---- 0.0------------
1987-07-02 16.9 22.1 11.5- 74.5- 1.3 3.7---- 0.0------------
1987-07-01 22.0 29.0 17.6- 80.8- 4.3 1.0---- 0.5------------
1987-06-30 21.5 27.0 17.6- 82.5- 1.0 1.0---- 0.0------------
1987-06-29 13.7 20.0 7.5- 87.0- 3.7 3.3---- 0.0------------
1987-06-28 12.9 16.1 11.0- 81.3- 4.3 5.0---- 2.1------------
1987-06-27 15.3 18.2 14.0- 75.5- 5.7 2.0---- 2.4------------
1987-06-26 15.4 20.0 9.5- 73.0- 1.3 1.7---- 0.0------------
1987-06-25 12.8 16.1 10.5- 79.3- 5.0 2.0---- 0.3------------
1987-06-24 13.4 17.5 10.8- 86.3- 6.3 1.7---- 1.1------------
1987-06-23 12.9 17.0 9.1- 92.8- 5.3 1.7---- 0.8------------
1987-06-22 15.0 21.2 9.5- 85.3- 2.0 2.0---- 0.0------------
1987-06-21 16.7 23.5 11.2- 71.8- 2.0 2.0---- 0.0------------
1987-06-20 13.1 21.0 4.0- 71.8- 1.7 1.7---- 0.0------------
1987-06-19 9.9 14.0 7.3- 84.0- 6.0 5.3---- 1.5------------
1987-06-18 10.7 15.5 4.5- 79.8- 6.7 2.7---- 5.3------------
1987-06-17 10.8 12.2 9.5- 80.5- 6.3 6.7---- 0.0------------
1987-06-16 12.1 19.2 8.8- 92.8- 6.7 5.7---- 4.0------------
307.5 ms

 

Źródłem pochodzenia danych jest Instytut Meteorologii i Gospodarki Wodnej – Państwowy Instytut Badawczy. Dane Instytutu Meteorologii i Gospodarki Wodnej – Państwowego Instytutu Badawczego zostały przetworzone.

Dane źródłowe można odnaleźć na stronie https://dane.imgw.pl